Main page
METAR-TAF:

METAR-TAF

Airports :

Sanandaj, Iran

Sanandaj Airport

latitude: 35-20N, longitude: 047-00E, elevation: 1373 m

Current weather observation

The report was made 1 hour and 24 minutes ago, at 15:50 UTC
Wind 8 kt from the West
Temperature 30°C
Humidity 11%
Pressure 1011 hPa
Visibility 10 km or more
no clouds below 1500 m and no cumulonimbus

METAR: OICS 231550Z 27008KT CAVOK 30/M04 Q1011

Time: 21:44 (17:14 UTC)


TAF: missing

Weather observations and forecasts of more than 4000 airports (METAR and TAF reports).

The available stations are represented by yellow and red dots on the map.

Hover mouse over dot to see the name of the station.

Then click to see weather observations and forecasts.

To change the map : click on the green buttons with a black cross to zoom in, on the green button with a dash to zoom out, or on the green arrows for adjacent maps.


METAR-TAF: